createdAt,value
2019-01-11T00:00:28.509Z,-971.27
2019-01-11T00:01:28.525Z,-971.93
2019-01-11T00:02:28.692Z,-979.76
2019-01-11T00:03:28.813Z,-975.53
2019-01-11T00:04:28.983Z,-971.63
2019-01-11T00:05:29.110Z,-917.10
2019-01-11T00:06:29.244Z,-919.08
2019-01-11T00:07:29.381Z,-917.61
2019-01-11T00:08:29.591Z,-913.42
2019-01-11T00:09:29.667Z,-915.34
2019-01-11T00:10:29.827Z,-910.60
2019-01-11T00:11:29.915Z,-913.98
2019-01-11T00:12:30.090Z,-919.08
2019-01-11T00:13:30.228Z,-913.18
2019-01-11T00:14:30.366Z,-914.11
2019-01-11T00:15:30.537Z,-918.11
2019-01-11T00:16:30.709Z,-918.78
2019-01-11T00:17:30.770Z,-917.80
2019-01-11T00:18:30.927Z,-921.93
2019-01-11T00:19:31.065Z,-924.28
2019-01-11T00:20:31.195Z,-914.00
2019-01-11T00:21:31.336Z,-916.55
2019-01-11T00:22:31.478Z,-919.16
2019-01-11T00:23:31.583Z,-915.90
2019-01-11T00:24:31.780Z,-915.88
2019-01-11T00:25:31.884Z,-919.15
2019-01-11T00:26:32.022Z,-915.68
2019-01-11T00:27:32.169Z,-919.37
2019-01-11T00:28:32.296Z,-914.41
2019-01-11T00:29:32.420Z,-922.21
2019-01-11T00:30:32.599Z,-918.16
2019-01-11T00:31:32.712Z,-918.81
2019-01-11T00:32:32.886Z,-912.44
2019-01-11T00:33:33.034Z,-917.63
2019-01-11T00:34:33.109Z,-919.44
2019-01-11T00:35:33.285Z,-920.67
2019-01-11T00:36:33.399Z,-918.43
2019-01-11T00:37:33.551Z,-914.75
2019-01-11T00:38:33.673Z,-916.98
2019-01-11T00:39:33.813Z,-916.44
2019-01-11T00:40:33.963Z,-911.92
2019-01-11T00:41:34.166Z,-912.20
2019-01-11T00:42:34.238Z,-914.05
2019-01-11T00:43:34.353Z,-914.11
2019-01-11T00:44:34.475Z,-921.11
2019-01-11T00:45:34.649Z,-922.94
2019-01-11T00:46:34.790Z,-924.97
2019-01-11T00:47:34.936Z,-921.59
2019-01-11T00:48:35.056Z,-918.39
2019-01-11T00:49:35.263Z,-917.97
2019-01-11T00:50:37.556Z,-921.09
2019-01-11T00:51:35.495Z,-919.40
2019-01-11T00:52:55.413Z,-916.09
2019-01-11T00:53:40.796Z,-920.73
2019-01-11T00:56:41.682Z,-783.81
2019-01-11T00:57:07.173Z,-915.61
2019-01-11T00:58:02.487Z,-919.76
2019-01-11T00:59:02.410Z,-918.57
2019-01-11T00:59:59.990Z,-919.28
2019-01-11T01:01:04.567Z,-916.15
2019-01-11T01:02:00.306Z,-921.57
2019-01-11T01:03:00.445Z,-920.21
2019-01-11T01:04:00.588Z,-915.18
2019-01-11T01:05:00.710Z,-916.21
2019-01-11T01:06:00.879Z,-920.34
2019-01-11T01:07:01.080Z,-912.68
2019-01-11T01:08:01.111Z,-912.99
2019-01-11T01:09:01.269Z,-910.89
2019-01-11T01:10:01.403Z,-912.67
2019-01-11T01:11:01.561Z,-921.11
2019-01-11T01:12:01.674Z,-918.43
2019-01-11T01:13:01.785Z,-920.31
2019-01-11T01:14:01.960Z,-917.08
2019-01-11T01:15:02.146Z,-916.89
2019-01-11T01:16:02.222Z,-917.89
2019-01-11T01:17:02.339Z,-917.31
2019-01-11T01:18:02.474Z,-920.71
2019-01-11T01:19:02.613Z,-915.61
2019-01-11T01:20:02.746Z,-917.08
2019-01-11T01:21:02.930Z,-917.27
2019-01-11T01:22:03.044Z,-918.17
2019-01-11T01:23:03.194Z,-917.67
2019-01-11T01:24:03.378Z,-917.00
2019-01-11T01:25:03.443Z,-917.24
2019-01-11T01:26:03.600Z,-916.68
2019-01-11T01:27:03.730Z,-917.03
2019-01-11T01:28:03.855Z,-922.77
2019-01-11T01:29:04.013Z,-917.16
2019-01-11T01:30:04.114Z,-915.34
2019-01-11T01:31:04.317Z,-919.92
2019-01-11T01:32:04.537Z,-914.74
2019-01-11T01:33:04.568Z,-916.44
2019-01-11T01:34:04.686Z,-916.39
2019-01-11T01:35:04.820Z,-914.23
2019-01-11T01:36:04.981Z,-917.51
2019-01-11T01:37:05.119Z,-910.07
2019-01-11T01:38:05.281Z,-915.87
2019-01-11T01:39:05.426Z,-913.58
2019-01-11T01:40:05.634Z,-912.47
2019-01-11T01:41:05.662Z,-910.14
2019-01-11T01:42:05.822Z,-910.47
2019-01-11T01:43:05.969Z,-912.37
2019-01-11T01:44:06.115Z,-911.61
2019-01-11T01:45:06.234Z,-912.46
2019-01-11T01:46:06.361Z,-911.11
2019-01-11T01:47:06.532Z,-912.44
2019-01-11T01:48:06.734Z,-908.75
2019-01-11T01:49:06.816Z,-914.45
2019-01-11T01:50:06.950Z,-915.90
2019-01-11T01:51:07.082Z,-962.50
2019-01-11T01:52:07.215Z,-967.74
2019-01-11T01:53:07.368Z,-965.41
2019-01-11T01:54:07.510Z,-963.78
2019-01-11T01:55:07.644Z,-964.56
2019-01-11T01:56:07.810Z,-969.54
2019-01-11T01:57:07.982Z,-967.00
2019-01-11T01:58:08.071Z,-968.12
2019-01-11T01:59:08.214Z,-967.53
2019-01-11T02:00:08.330Z,-967.12
2019-01-11T02:01:08.518Z,-967.41
2019-01-11T02:02:08.626Z,-962.78
2019-01-11T02:03:08.745Z,-967.39
2019-01-11T02:04:08.930Z,-963.91
2019-01-11T02:05:09.143Z,-962.61
2019-01-11T02:06:09.175Z,-967.42
2019-01-11T02:07:09.332Z,-967.86
2019-01-11T02:08:09.475Z,-968.11
2019-01-11T02:09:09.600Z,-970.67
2019-01-11T02:10:09.759Z,-971.38
2019-01-11T02:11:09.864Z,-969.37
2019-01-11T02:12:10.015Z,-966.76
2019-01-11T02:13:10.263Z,-971.49
2019-01-11T02:14:10.319Z,-975.48
2019-01-11T02:15:10.413Z,-976.03
2019-01-11T02:16:10.545Z,-971.05
2019-01-11T02:17:10.705Z,-973.99
2019-01-11T02:18:10.824Z,-973.68
2019-01-11T02:19:10.995Z,-977.16
2019-01-11T02:20:11.109Z,-973.90
2019-01-11T02:21:11.290Z,-968.96
2019-01-11T02:22:11.421Z,-971.04
2019-01-11T02:23:11.523Z,-969.68
2019-01-11T02:24:11.713Z,-968.83
2019-01-11T02:25:11.785Z,-972.50
2019-01-11T02:26:11.940Z,-967.30
2019-01-11T02:27:12.088Z,-967.82
2019-01-11T02:28:12.214Z,-964.98
2019-01-11T02:29:12.444Z,-966.54
2019-01-11T02:30:12.520Z,-964.74
2019-01-11T02:31:12.626Z,-969.01
2019-01-11T02:32:12.801Z,-969.92
2019-01-11T02:33:12.953Z,-911.85
2019-01-11T02:34:13.106Z,-912.57
2019-01-11T02:35:13.216Z,-914.40
2019-01-11T02:36:13.570Z,-915.61
2019-01-11T02:37:13.488Z,-909.66
2019-01-11T02:38:13.689Z,-911.53
2019-01-11T02:39:13.806Z,-910.30
2019-01-11T02:40:13.898Z,-913.12
2019-01-11T02:41:14.025Z,-916.89
2019-01-11T02:42:14.168Z,-914.73
2019-01-11T02:43:14.309Z,-917.28
2019-01-11T02:44:14.473Z,-918.40
2019-01-11T02:45:14.584Z,-917.93
2019-01-11T02:46:14.838Z,-918.66
2019-01-11T02:47:14.875Z,-919.86
2019-01-11T02:48:15.002Z,-919.67
2019-01-11T02:49:15.154Z,-918.53
2019-01-11T02:50:15.303Z,-916.89
2019-01-11T02:51:15.427Z,-920.69
2019-01-11T02:52:15.599Z,-912.44
2019-01-11T02:53:15.701Z,-923.53
2019-01-11T02:54:15.902Z,-917.71
2019-01-11T02:55:16.012Z,-914.32
2019-01-11T02:56:16.121Z,-914.34
2019-01-11T02:57:16.297Z,-917.38
2019-01-11T02:58:16.378Z,-916.64
2019-01-11T02:59:16.544Z,-919.13
2019-01-11T03:00:16.690Z,-913.72
2019-01-11T03:01:16.811Z,-919.02
2019-01-11T03:02:17.035Z,-917.41
2019-01-11T03:03:17.062Z,-915.07
2019-01-11T03:04:17.214Z,-914.41
2019-01-11T03:05:17.369Z,-917.23
2019-01-11T03:06:17.510Z,-916.24
2019-01-11T03:07:17.690Z,-923.51
2019-01-11T03:08:17.791Z,-917.73
2019-01-11T03:09:17.947Z,-920.07
2019-01-11T03:10:18.088Z,-920.69
2019-01-11T03:11:18.229Z,-915.00
2019-01-11T03:12:18.348Z,-923.78
2019-01-11T03:13:18.476Z,-921.11
2019-01-11T03:14:18.627Z,-919.74
2019-01-11T03:15:18.761Z,-917.45
2019-01-11T03:16:18.891Z,-920.71
2019-01-11T03:17:19.055Z,-917.97
2019-01-11T03:18:19.200Z,-920.25
2019-01-11T03:19:19.422Z,-919.39
2019-01-11T03:20:19.445Z,-922.22
2019-01-11T03:21:19.584Z,-923.29
2019-01-11T03:22:19.765Z,-923.43
2019-01-11T03:23:19.873Z,-919.05
2019-01-11T03:24:20.026Z,-917.12
2019-01-11T03:25:20.167Z,-922.31
2019-01-11T03:26:20.264Z,-923.17
2019-01-11T03:27:20.530Z,-919.26
2019-01-11T03:28:20.558Z,-920.54
2019-01-11T03:29:20.735Z,-916.68
2019-01-11T03:30:20.899Z,-917.09
2019-01-11T03:31:20.954Z,-917.59
2019-01-11T03:32:21.121Z,-916.17
2019-01-11T03:33:21.256Z,-922.10
2019-01-11T03:34:21.392Z,-917.48
2019-01-11T03:35:21.613Z,-915.16
2019-01-11T03:36:21.653Z,-915.97
2019-01-11T03:37:21.798Z,-914.90
2019-01-11T03:38:21.930Z,-916.48
2019-01-11T03:39:22.086Z,-917.66
2019-01-11T03:40:22.268Z,-915.51
2019-01-11T03:41:22.364Z,-919.83
2019-01-11T03:42:22.519Z,-914.83
2019-01-11T03:43:22.651Z,-918.39
2019-01-11T03:44:22.845Z,-907.92
2019-01-11T03:45:22.976Z,-910.01
2019-01-11T03:46:23.061Z,-910.98
2019-01-11T03:47:23.199Z,-917.00
2019-01-11T03:48:23.317Z,-915.66
2019-01-11T03:49:23.463Z,-910.62
2019-01-11T03:50:23.672Z,-918.38
2019-01-11T03:51:23.790Z,-917.48
2019-01-11T03:52:24.038Z,-915.03
2019-01-11T03:53:24.039Z,-914.10
2019-01-11T03:54:24.186Z,-910.51
2019-01-11T03:55:24.388Z,-910.88
2019-01-11T03:56:24.466Z,-908.34
2019-01-11T03:57:24.603Z,-913.59
2019-01-11T03:58:24.792Z,-911.36
2019-01-11T03:59:24.893Z,-910.14
2019-01-11T04:00:25.159Z,-914.62
2019-01-11T04:01:25.187Z,-908.25
2019-01-11T04:02:25.329Z,-908.66
2019-01-11T04:03:25.521Z,-908.94
2019-01-11T04:04:25.643Z,-915.95
2019-01-11T04:05:25.765Z,-911.78
2019-01-11T04:06:25.903Z,-913.43
2019-01-11T04:07:26.042Z,-912.97
2019-01-11T04:08:26.285Z,-911.33
2019-01-11T04:09:26.301Z,-905.43
2019-01-11T04:10:26.465Z,-907.52
2019-01-11T04:11:26.587Z,-912.57
2019-01-11T04:12:26.740Z,-910.52
2019-01-11T04:13:30.427Z,-907.20
2019-01-11T04:14:27.237Z,-911.79
2019-01-11T04:15:27.166Z,-960.39
2019-01-11T04:16:27.315Z,-965.89
2019-01-11T04:17:27.429Z,-967.73
2019-01-11T04:18:27.618Z,-964.27
2019-01-11T04:19:27.727Z,-962.04
2019-01-11T04:20:27.873Z,-963.21
2019-01-11T04:21:27.991Z,-965.99
2019-01-11T04:22:29.642Z,-962.30
2019-01-11T04:23:28.296Z,-967.74
2019-01-11T04:24:28.437Z,-967.21
2019-01-11T04:25:28.716Z,-968.94
2019-01-11T04:26:28.703Z,-961.63
2019-01-11T04:27:28.826Z,-969.14
2019-01-11T04:28:29.020Z,-963.42
2019-01-11T04:29:29.108Z,-964.95
2019-01-11T04:30:29.268Z,-966.08
2019-01-11T04:31:29.386Z,-959.31
2019-01-11T04:32:29.516Z,-966.53
2019-01-11T04:33:29.818Z,-966.70
2019-01-11T04:34:30.474Z,-965.85
2019-01-11T04:35:29.952Z,-966.71
2019-01-11T04:36:30.084Z,-969.47
2019-01-11T04:37:30.216Z,-969.61
2019-01-11T04:38:30.388Z,-965.26
2019-01-11T04:39:30.489Z,-961.77
2019-01-11T04:40:34.112Z,-940.89
2019-01-11T04:41:30.834Z,-957.28
2019-01-11T04:42:30.907Z,-963.97
2019-01-11T04:43:31.105Z,-966.39
2019-01-11T04:44:31.178Z,-968.91
2019-01-11T04:45:31.350Z,-964.45
2019-01-11T04:46:31.478Z,-965.19
2019-01-11T04:47:31.608Z,-963.18
2019-01-11T04:48:31.844Z,-962.99
2019-01-11T04:49:31.953Z,-962.36
2019-01-11T04:50:32.001Z,-961.49
2019-01-11T04:51:32.149Z,-963.74
2019-01-11T04:52:32.288Z,-961.67
2019-01-11T04:53:32.643Z,-959.47
2019-01-11T04:54:32.579Z,-959.55
2019-01-11T04:55:32.712Z,-958.40
2019-01-11T04:56:32.833Z,-951.40
2019-01-11T04:57:33.024Z,-948.71
2019-01-11T04:58:33.264Z,-951.33
2019-01-11T04:59:33.276Z,-961.79
2019-01-11T05:00:33.396Z,-957.54
2019-01-11T05:01:33.548Z,-958.21
2019-01-11T05:02:33.696Z,-958.26
2019-01-11T05:03:33.892Z,-960.08
2019-01-11T05:04:33.990Z,-903.47
2019-01-11T05:05:34.118Z,-904.50
2019-01-11T05:06:34.409Z,-898.91
2019-01-11T05:07:34.391Z,-899.25
2019-01-11T05:08:34.566Z,-904.91
2019-01-11T05:09:34.746Z,-906.70
2019-01-11T05:10:34.800Z,-902.16
2019-01-11T05:11:34.965Z,-904.03
2019-01-11T05:12:35.080Z,-902.98
2019-01-11T05:13:35.239Z,-898.81
2019-01-11T05:14:35.442Z,-870.80
2019-01-11T05:15:35.495Z,-893.29
2019-01-11T05:16:39.412Z,-896.41
2019-01-11T05:17:35.753Z,-900.47
2019-01-11T05:18:35.918Z,-901.62
2019-01-11T05:19:36.068Z,-896.46
2019-01-11T05:20:36.185Z,-906.04
2019-01-11T05:21:36.344Z,-904.69
2019-01-11T05:22:36.538Z,-894.44
2019-01-11T05:23:36.575Z,-901.36
2019-01-11T05:24:36.754Z,-902.42
2019-01-11T05:25:36.885Z,-900.08
2019-01-11T05:26:37.023Z,-907.61
2019-01-11T05:27:37.138Z,-902.94
2019-01-11T05:28:37.298Z,-906.26
2019-01-11T05:29:37.427Z,-901.25
2019-01-11T05:30:37.579Z,-902.65
2019-01-11T05:31:37.735Z,-900.37
2019-01-11T05:32:37.834Z,-900.12
2019-01-11T05:33:37.988Z,-896.18
2019-01-11T05:34:38.102Z,-900.01
2019-01-11T05:35:38.248Z,-901.58
2019-01-11T05:36:38.404Z,-886.63
2019-01-11T05:37:38.521Z,-895.27
2019-01-11T05:38:38.705Z,-901.25
2019-01-11T05:39:38.927Z,-896.86
2019-01-11T05:40:38.942Z,-904.51
2019-01-11T05:41:39.098Z,-900.34
2019-01-11T05:42:39.231Z,-900.77
2019-01-11T05:43:39.377Z,-903.22
2019-01-11T05:44:39.499Z,-900.93
2019-01-11T05:45:39.615Z,-900.72
2019-01-11T05:46:39.780Z,-892.64
2019-01-11T05:47:40.025Z,-896.98
2019-01-11T05:48:40.049Z,-901.27
2019-01-11T05:49:40.187Z,-902.64
2019-01-11T05:50:40.317Z,-894.57
2019-01-11T05:51:40.712Z,-903.94
2019-01-11T05:52:40.609Z,-900.56
2019-01-11T05:53:40.775Z,-902.76
2019-01-11T05:54:42.492Z,-901.06
2019-01-11T05:55:41.112Z,-879.59
2019-01-11T05:56:41.176Z,-889.93
2019-01-11T05:57:41.299Z,-900.24
2019-01-11T05:58:41.449Z,-903.88
2019-01-11T05:59:41.611Z,-904.57
2019-01-11T06:00:41.723Z,-900.09
2019-01-11T06:01:41.882Z,-901.00
2019-01-11T06:02:41.987Z,-898.95
2019-01-11T06:03:42.186Z,-899.49
2019-01-11T06:04:42.283Z,-894.82
2019-01-11T06:05:42.417Z,-899.69
2019-01-11T06:06:42.587Z,-902.59
2019-01-11T06:07:42.690Z,-905.85
2019-01-11T06:08:42.833Z,-904.43
2019-01-11T06:09:43.020Z,-904.90
2019-01-11T06:10:43.120Z,-903.26
2019-01-11T06:11:43.297Z,-899.36
2019-01-11T06:12:43.528Z,-908.27
2019-01-11T06:13:43.641Z,-904.75
2019-01-11T06:14:43.819Z,-896.04
2019-01-11T06:15:43.954Z,-896.16
2019-01-11T06:16:44.105Z,-895.45
2019-01-11T06:17:44.222Z,-896.88
2019-01-11T06:18:44.362Z,-896.55
2019-01-11T06:19:44.523Z,-898.02
2019-01-11T06:20:44.715Z,-897.97
2019-01-11T06:21:44.837Z,-902.29
2019-01-11T06:22:44.920Z,-892.78
2019-01-11T06:23:45.039Z,-900.61
2019-01-11T06:24:45.216Z,-899.17
2019-01-11T06:25:45.355Z,-889.43
2019-01-11T06:26:45.524Z,-897.50
2019-01-11T06:27:45.629Z,-891.34
2019-01-11T06:28:45.856Z,-893.69
2019-01-11T06:29:45.902Z,-892.62
2019-01-11T06:30:46.041Z,-888.48
2019-01-11T06:31:46.212Z,-898.16
2019-01-11T06:32:46.316Z,-897.18
2019-01-11T06:33:46.455Z,-898.95
2019-01-11T06:34:46.616Z,-894.59
2019-01-11T06:35:46.721Z,-879.05
2019-01-11T06:36:46.966Z,-883.32
2019-01-11T06:37:46.985Z,-895.21
2019-01-11T06:38:47.133Z,-890.47
2019-01-11T06:39:47.285Z,-900.03
2019-01-11T06:40:47.407Z,-900.09
2019-01-11T06:41:47.560Z,-902.32
2019-01-11T06:42:47.676Z,-901.84
2019-01-11T06:43:47.839Z,-901.53
2019-01-11T06:44:48.069Z,-900.73
2019-01-11T06:45:48.127Z,-898.36
2019-01-11T06:46:48.267Z,-899.36
2019-01-11T06:47:48.372Z,-899.50
2019-01-11T06:48:48.534Z,-900.38
2019-01-11T06:49:48.687Z,-904.20
2019-01-11T06:50:48.806Z,-902.23
2019-01-11T06:51:48.977Z,-892.56
2019-01-11T06:52:49.085Z,-891.91
2019-01-11T06:53:49.333Z,-896.09
2019-01-11T06:54:49.381Z,-896.90
2019-01-11T06:55:49.493Z,-888.55
2019-01-11T06:56:49.668Z,-894.69
2019-01-11T06:57:49.749Z,-898.32
2019-01-11T06:58:49.905Z,-896.48
2019-01-11T06:59:50.058Z,-892.75
2019-01-11T07:00:54.585Z,-900.63
2019-01-11T07:01:50.470Z,-891.92
2019-01-11T07:02:50.438Z,-892.10
2019-01-11T07:03:50.594Z,-893.37
2019-01-11T07:04:50.753Z,-895.53
2019-01-11T07:05:50.879Z,-897.44
2019-01-11T07:06:51.020Z,-895.46
2019-01-11T07:07:51.151Z,-892.79
2019-01-11T07:08:51.274Z,-897.75
2019-01-11T07:09:51.489Z,-890.65
2019-01-11T07:10:51.500Z,-891.38
2019-01-11T07:11:51.630Z,-894.12
2019-01-11T07:12:51.745Z,-896.27
2019-01-11T07:13:51.895Z,-896.88
2019-01-11T07:14:52.020Z,-903.13
2019-01-11T07:15:52.168Z,-894.81
2019-01-11T07:16:52.280Z,-892.31
2019-01-11T07:17:52.703Z,-897.25
2019-01-11T07:18:52.587Z,-895.77
2019-01-11T07:19:52.762Z,-896.19
2019-01-11T07:20:52.902Z,-894.42
2019-01-11T07:21:53.024Z,-898.88
2019-01-11T07:22:53.173Z,-900.81
2019-01-11T07:23:53.306Z,-904.04
2019-01-11T07:24:53.446Z,-902.43
2019-01-11T07:25:53.608Z,-902.51
2019-01-11T07:26:53.773Z,-907.16
2019-01-11T07:27:53.957Z,-905.26
2019-01-11T07:28:54.024Z,-906.21
2019-01-11T07:29:54.164Z,-913.27
2019-01-11T07:30:54.309Z,-912.83
2019-01-11T07:31:54.702Z,-906.28
2019-01-11T07:32:54.605Z,-901.71
2019-01-11T07:33:54.753Z,-900.84
2019-01-11T07:34:54.994Z,-879.38
2019-01-11T07:35:55.038Z,-890.81
2019-01-11T07:36:55.160Z,-897.34
2019-01-11T07:37:55.325Z,-908.59
2019-01-11T07:38:55.427Z,-906.22
2019-01-11T07:39:55.586Z,-903.18
2019-01-11T07:40:55.693Z,-906.65
2019-01-11T07:41:55.853Z,-959.97
2019-01-11T07:42:56.119Z,-900.17
2019-01-11T07:43:56.124Z,-903.47
2019-01-11T07:44:56.288Z,-900.98
2019-01-11T07:45:56.402Z,-904.34
2019-01-11T07:46:56.533Z,-906.19
2019-01-11T07:47:56.715Z,-899.38
2019-01-11T07:48:56.824Z,-898.98
2019-01-11T07:49:56.979Z,-897.24
2019-01-11T07:50:57.133Z,-902.41
2019-01-11T07:51:57.202Z,-902.75
2019-01-11T07:52:57.399Z,-904.15
2019-01-11T07:53:57.502Z,-904.24
2019-01-11T07:54:57.658Z,-906.85
2019-01-11T07:55:57.777Z,-896.06
2019-01-11T07:56:57.911Z,-903.05
2019-01-11T07:57:58.187Z,-902.32
2019-01-11T07:58:58.225Z,-905.13
2019-01-11T07:59:58.350Z,-902.41
2019-01-11T08:00:58.472Z,-904.96
2019-01-11T08:01:58.610Z,-892.43
2019-01-11T08:02:58.772Z,-899.33
2019-01-11T08:03:58.870Z,-895.06
2019-01-11T08:04:59.038Z,-899.63
2019-01-11T08:05:59.162Z,-902.91
2019-01-11T08:06:59.346Z,-904.58
2019-01-11T08:07:59.559Z,-884.29
2019-01-11T08:08:59.560Z,-888.30
2019-01-11T08:09:59.734Z,-897.88
2019-01-11T08:10:59.851Z,-894.32
2019-01-11T08:11:59.988Z,-905.12
2019-01-11T08:13:00.160Z,-900.23
2019-01-11T08:14:00.265Z,-896.34
2019-01-11T08:15:00.394Z,-890.79
2019-01-11T08:16:00.654Z,-892.06
2019-01-11T08:17:00.679Z,-886.61
2019-01-11T08:18:00.847Z,-895.95
2019-01-11T08:19:00.943Z,-892.70
2019-01-11T08:20:01.088Z,-897.47
2019-01-11T08:21:01.234Z,-895.52
2019-01-11T08:22:01.401Z,-896.69
2019-01-11T08:23:01.524Z,-896.29
2019-01-11T08:24:01.709Z,-896.26
2019-01-11T08:25:01.748Z,-903.21
2019-01-11T08:26:01.912Z,-895.50
2019-01-11T08:27:02.099Z,-899.46
2019-01-11T08:28:02.237Z,-895.21
2019-01-11T08:29:02.340Z,-897.81
2019-01-11T08:30:02.472Z,-902.62
2019-01-11T08:31:02.601Z,-904.27
2019-01-11T08:32:02.796Z,-903.51
2019-01-11T08:33:02.900Z,-900.18
2019-01-11T08:34:03.013Z,-899.58
2019-01-11T08:35:03.150Z,-900.82
2019-01-11T08:36:03.311Z,-895.28
2019-01-11T08:37:03.428Z,-894.01
2019-01-11T08:38:03.620Z,-901.41
2019-01-11T08:39:03.726Z,-898.92
2019-01-11T08:40:03.888Z,-901.06
2019-01-11T08:41:04.087Z,-904.05
2019-01-11T08:42:04.123Z,-901.95
2019-01-11T08:43:04.308Z,-903.93
2019-01-11T08:44:04.414Z,-901.24
2019-01-11T08:45:04.543Z,-901.73
2019-01-11T08:46:04.709Z,-898.80
2019-01-11T08:47:04.829Z,-901.21
2019-01-11T08:48:04.989Z,-899.83
2019-01-11T08:49:05.237Z,-901.67
2019-01-11T08:50:05.243Z,-899.89
2019-01-11T08:51:05.395Z,-899.79
2019-01-11T08:52:05.511Z,-896.65
2019-01-11T08:53:05.662Z,-902.20
2019-01-11T08:54:05.793Z,-895.67
2019-01-11T08:55:05.953Z,-887.95
2019-01-11T08:56:08.435Z,-897.77
2019-01-11T08:57:06.315Z,-892.47
2019-01-11T08:58:06.363Z,-896.54
2019-01-11T08:59:06.494Z,-899.49
2019-01-11T09:00:06.647Z,-904.99
2019-01-11T09:01:06.803Z,-899.97
2019-01-11T09:02:06.923Z,-902.39
2019-01-11T09:03:07.089Z,-895.24
2019-01-11T09:04:07.199Z,-897.46
2019-01-11T09:05:07.349Z,-897.50
2019-01-11T09:06:07.472Z,-898.59
2019-01-11T09:07:07.605Z,-897.17
2019-01-11T09:08:07.775Z,-901.03
2019-01-11T09:09:08.120Z,-902.42
2019-01-11T09:10:08.003Z,-903.11
2019-01-11T09:11:08.155Z,-897.63
2019-01-11T09:12:08.296Z,-900.33
2019-01-11T09:13:08.518Z,-901.95
2019-01-11T09:14:08.620Z,-898.53
2019-01-11T09:15:08.696Z,-898.19
2019-01-11T09:16:08.856Z,-899.77
2019-01-11T09:17:08.994Z,-901.01
2019-01-11T09:18:09.148Z,-902.42
2019-01-11T09:19:09.287Z,-902.55
2019-01-11T09:20:09.408Z,-899.22
2019-01-11T09:21:10.616Z,-900.90
2019-01-11T09:22:09.766Z,-899.20
2019-01-11T09:23:09.833Z,-891.86
2019-01-11T09:24:09.982Z,-892.10
2019-01-11T09:25:10.096Z,-901.45
2019-01-11T09:26:10.256Z,-900.93
2019-01-11T09:27:10.358Z,-899.67
2019-01-11T09:28:10.526Z,-897.91
2019-01-11T09:29:10.663Z,-897.49
2019-01-11T09:30:10.925Z,-893.30
2019-01-11T09:31:10.940Z,-895.47
2019-01-11T09:32:11.072Z,-895.36
2019-01-11T09:33:11.224Z,-900.19
2019-01-11T09:34:11.382Z,-898.35
2019-01-11T09:35:11.503Z,-890.13
2019-01-11T09:36:11.662Z,-897.34
2019-01-11T09:37:11.780Z,-898.42
2019-01-11T09:38:11.939Z,-898.42
2019-01-11T09:39:12.129Z,-897.72
2019-01-11T09:40:12.200Z,-897.45
2019-01-11T09:41:12.356Z,-902.91
2019-01-11T09:42:12.476Z,-896.21
2019-01-11T09:43:12.600Z,-896.90
2019-01-11T09:44:12.770Z,-899.28
2019-01-11T09:45:12.909Z,-901.61
2019-01-11T09:46:13.100Z,-895.09
2019-01-11T09:47:13.163Z,-899.13
2019-01-11T09:48:13.308Z,-899.66
2019-01-11T09:49:13.464Z,-895.11
2019-01-11T09:50:13.599Z,-899.95
2019-01-11T09:51:15.739Z,-900.26
2019-01-11T09:52:13.883Z,-899.16
2019-01-11T09:53:14.028Z,-901.72
2019-01-11T09:54:14.214Z,-898.39
2019-01-11T09:55:14.376Z,-885.75
2019-01-11T09:56:14.459Z,-889.89
2019-01-11T09:57:14.582Z,-889.84
2019-01-11T09:58:14.719Z,-893.65
2019-01-11T09:59:14.889Z,-896.97
2019-01-11T10:00:14.980Z,-895.70
2019-01-11T10:01:15.138Z,-901.49
2019-01-11T10:02:15.280Z,-894.72
2019-01-11T10:03:15.545Z,-898.20
2019-01-11T10:04:15.584Z,-900.21
2019-01-11T10:05:15.719Z,-896.45
2019-01-11T10:06:15.852Z,-898.15
2019-01-11T10:07:15.989Z,-899.13
2019-01-11T10:08:16.123Z,-896.88
2019-01-11T10:09:16.305Z,-897.24
2019-01-11T10:10:16.409Z,-901.06
2019-01-11T10:11:16.595Z,-897.52
2019-01-11T10:12:16.671Z,-902.48
2019-01-11T10:13:16.818Z,-896.61
2019-01-11T10:14:16.986Z,-898.72
2019-01-11T10:15:17.090Z,-855.07
2019-01-11T10:16:17.246Z,-891.96
2019-01-11T10:17:17.355Z,-899.51
2019-01-11T10:18:17.504Z,-897.41
2019-01-11T10:19:17.717Z,-899.73
2019-01-11T10:20:17.758Z,-899.61
2019-01-11T10:21:22.104Z,-895.54
2019-01-11T10:22:19.027Z,-899.94
2019-01-11T10:23:18.172Z,-895.56
2019-01-11T10:24:18.362Z,-901.60
2019-01-11T10:25:18.473Z,-897.11
2019-01-11T10:26:18.635Z,-896.05
2019-01-11T10:27:18.784Z,-897.18
2019-01-11T10:28:18.943Z,-900.89
2019-01-11T10:29:19.081Z,-901.33
2019-01-11T10:30:19.189Z,-902.14
2019-01-11T10:31:19.344Z,-899.94
2019-01-11T10:32:19.466Z,-903.36
2019-01-11T10:33:19.581Z,-902.82
2019-01-11T10:34:19.761Z,-904.25
2019-01-11T10:35:19.901Z,-898.96
2019-01-11T10:36:20.133Z,-897.51
2019-01-11T10:37:20.159Z,-894.05
2019-01-11T10:38:20.279Z,-889.03
2019-01-11T10:39:20.469Z,-894.96
2019-01-11T10:40:20.573Z,-899.78
2019-01-11T10:41:20.710Z,-894.43
2019-01-11T10:42:20.862Z,-902.12
2019-01-11T10:43:20.998Z,-899.49
2019-01-11T10:44:21.298Z,-898.64
2019-01-11T10:45:21.264Z,-893.97
2019-01-11T10:46:21.408Z,-899.03
2019-01-11T10:47:21.562Z,-897.26
2019-01-11T10:48:21.924Z,-894.29
2019-01-11T10:49:21.855Z,-893.27
2019-01-11T10:50:21.995Z,-896.88
2019-01-11T10:51:28.015Z,-902.01
2019-01-11T10:52:23.343Z,-896.25
2019-01-11T10:53:22.387Z,-894.40
2019-01-11T10:54:22.561Z,-891.95
2019-01-11T10:55:24.133Z,-896.20
2019-01-11T10:56:22.814Z,-894.55
2019-01-11T10:57:22.970Z,-897.64
2019-01-11T10:58:23.088Z,-893.74
2019-01-11T10:59:23.238Z,-900.12
2019-01-11T11:00:23.471Z,-893.97
2019-01-11T11:01:23.464Z,-901.70
2019-01-11T11:02:23.652Z,-900.75
2019-01-11T11:03:23.775Z,-901.37
2019-01-11T11:04:23.928Z,-896.35
2019-01-11T11:05:24.067Z,-895.44
2019-01-11T11:06:24.189Z,-898.77
2019-01-11T11:07:24.376Z,-896.33
2019-01-11T11:08:24.504Z,-896.03
2019-01-11T11:09:24.727Z,-895.46
2019-01-11T11:10:24.777Z,-890.16
2019-01-11T11:11:24.899Z,-898.24
2019-01-11T11:12:25.038Z,-901.54
2019-01-11T11:13:25.177Z,-901.25
2019-01-11T11:14:25.331Z,-894.76
2019-01-11T11:15:25.458Z,-895.61
2019-01-11T11:16:25.591Z,-897.17
2019-01-11T11:17:25.852Z,-892.16
2019-01-11T11:18:25.858Z,-901.11
2019-01-11T11:19:26.013Z,-897.37
2019-01-11T11:20:26.146Z,-899.11
2019-01-11T11:21:26.367Z,-899.90
2019-01-11T11:22:26.434Z,-902.59
2019-01-11T11:23:26.541Z,-895.91
2019-01-11T11:24:26.714Z,-895.57
2019-01-11T11:25:26.912Z,-895.48
2019-01-11T11:26:26.960Z,-891.76
2019-01-11T11:27:27.119Z,-898.71
2019-01-11T11:28:27.225Z,-895.49
2019-01-11T11:29:27.396Z,-896.05
2019-01-11T11:30:27.542Z,-894.99
2019-01-11T11:31:27.662Z,-899.88
2019-01-11T11:32:27.827Z,-896.27
2019-01-11T11:33:28.029Z,-896.94
2019-01-11T11:34:28.066Z,-891.67
2019-01-11T11:35:28.232Z,-898.43
2019-01-11T11:36:28.365Z,-897.22
2019-01-11T11:37:28.514Z,-904.05
2019-01-11T11:38:28.643Z,-895.16
2019-01-11T11:39:28.804Z,-889.09
2019-01-11T11:40:28.924Z,-887.94
2019-01-11T11:41:29.114Z,-893.51
2019-01-11T11:42:29.283Z,-895.51
2019-01-11T11:43:29.356Z,-897.51
2019-01-11T11:44:29.495Z,-892.83
2019-01-11T11:45:29.626Z,-895.40
2019-01-11T11:46:29.772Z,-890.20
2019-01-11T11:47:29.943Z,-889.56
2019-01-11T11:48:30.069Z,-887.84
2019-01-11T11:49:30.214Z,-888.93
2019-01-11T11:50:30.504Z,-894.99
2019-01-11T11:51:30.500Z,-895.01
2019-01-11T11:52:30.653Z,-893.45
2019-01-11T11:53:30.777Z,-895.39
2019-01-11T11:54:30.908Z,-892.56
2019-01-11T11:55:31.080Z,-896.53
2019-01-11T11:56:31.171Z,-888.28
2019-01-11T11:57:31.350Z,-893.62
2019-01-11T11:58:31.591Z,-897.76
2019-01-11T11:59:31.613Z,-893.71
2019-01-11T12:00:31.775Z,-898.03
2019-01-11T12:01:31.885Z,-887.91
2019-01-11T12:02:32.046Z,-898.76
2019-01-11T12:03:32.167Z,-893.14
2019-01-11T12:04:32.305Z,-893.21
2019-01-11T12:05:32.460Z,-894.91
2019-01-11T12:06:32.637Z,-884.60
2019-01-11T12:07:32.705Z,-888.92
2019-01-11T12:08:32.848Z,-895.29